Time;durP1;ratioP1;P1;durP2;ratioP2;P2;SDS_P1;SDS_P2;PMS_P1;PMS_P2;Temp;Humidity;BMP_temperature;BMP_pressure;BME280_temperature;BME280_humidity;BME280_pressure;Samples;Min_cycle;Max_cycle;Signal;HPM_P1;HPM_P2
2022/04/08 12:28:45;;;;;;;2.88;0.70;;;10.00;99.90;;;;;;6110611;23;20013;-93
2022/04/08 12:35:36;;;;;;;2.28;0.70;;;10.10;99.90;;;;;;6097235;23;19917;-92
2022/04/08 12:42:06;;;;;;;3.35;0.60;;;10.10;99.90;;;;;;6096500;23;20022;-93
2022/04/08 12:53:23;;;;;;;2.35;0.50;;;10.20;99.90;;;;;;6157290;23;20461;-93
2022/04/08 12:56:19;;;;;;;2.35;0.98;;;10.20;99.90;;;;;;6047715;23;20107;-93
2022/04/08 13:12:35;;;;;;;6.25;0.95;;;10.40;99.90;;;;;;6106185;23;20564;-94
2022/04/08 13:15:24;;;;;;;2.28;0.80;;;10.40;99.90;;;;;;6115241;23;20049;-91
2022/04/08 13:38:39;;;;;;;4.50;0.98;;;10.80;99.90;;;;;;6158164;23;19987;-95
2022/04/08 13:56:21;;;;;;;3.03;0.70;;;11.20;99.90;;;;;;6158565;23;20033;-93
2022/04/08 14:25:16;;;;;;;3.22;0.50;;;11.80;99.90;;;;;;6156927;23;20018;-94
2022/04/08 14:28:17;;;;;;;1.75;0.77;;;12.10;99.90;;;;;;6156782;23;20056;-92
2022/04/08 14:30:47;;;;;;;13.07;0.80;;;12.10;99.90;;;;;;6130688;23;20033;-92
2022/04/08 14:33:32;;;;;;;3.60;0.85;;;12.00;99.90;;;;;;6155850;23;20337;-92
2022/04/08 14:36:09;;;;;;;4.03;0.75;;;12.00;99.90;;;;;;6154610;23;20068;-93
2022/04/08 14:42:27;;;;;;;7.00;0.88;;;11.90;99.90;;;;;;6158214;23;20014;-90
2022/04/08 14:44:55;;;;;;;11.85;1.08;;;11.90;99.90;;;;;;6158417;23;20021;-91
2022/04/08 14:47:34;;;;;;;3.15;0.57;;;12.10;99.90;;;;;;6159668;23;20084;-92
2022/04/08 14:51:01;;;;;;;;;;;;;;;;;;;;;
2022/04/08 14:54:51;;;;;;;;;;;;;;;;;;;;;
2022/04/08 14:57:52;;;;;;;4.88;0.90;;;12.40;99.90;;;;;;6157567;23;20025;-92
2022/04/08 15:03:34;;;;;;;3.15;1.20;;;12.00;99.90;;;;;;6149649;23;20410;-93
2022/04/08 15:06:09;;;;;;;3.83;0.63;;;12.00;99.90;;;;;;6110346;23;20028;-92
2022/04/08 15:08:37;;;;;;;3.65;0.60;;;12.20;99.90;;;;;;6110774;23;20390;-91
2022/04/08 15:16:13;;;;;;;5.75;1.50;;;12.20;99.90;;;;;;5956743;24;20031;-93
2022/04/08 15:19:30;;;;;;;5.28;0.90;;;12.30;99.90;;;;;;6030393;23;20094;-93
2022/04/08 15:22:16;;;;;;;3.00;0.73;;;12.60;99.90;;;;;;6067697;23;20023;-91
2022/04/08 15:25:07;;;;;;;5.38;1.08;;;12.60;99.90;;;;;;6070195;23;20051;-93
2022/04/08 15:27:37;;;;;;;5.03;0.80;;;12.70;99.90;;;;;;6070924;23;20027;-92
2022/04/08 15:30:49;;;;;;;6.78;0.88;;;12.70;99.90;;;;;;6045321;23;20063;-92
2022/04/08 15:33:25;;;;;;;4.90;0.95;;;12.70;99.90;;;;;;6045641;23;20027;-93
2022/04/08 15:36:24;;;;;;;7.07;1.55;;;12.80;99.90;;;;;;6046277;23;20069;-92
2022/04/08 15:39:18;;;;;;;;;;;;;;;;;;;;;
2022/04/08 15:46:21;;;;;;;2.10;1.20;;;12.20;99.90;;;;;;6010832;23;20031;-93
2022/04/08 15:49:33;;;;;;;3.70;0.80;;;12.00;99.90;;;;;;6090027;23;20021;-91
2022/04/08 15:52:06;;;;;;;6.15;0.98;;;11.90;99.90;;;;;;6109160;23;20017;-91
2022/04/08 15:54:51;;;;;;;2.10;0.55;;;11.90;99.90;;;;;;6158791;23;20113;-91
2022/04/08 15:57:25;;;;;;;6.57;0.80;;;12.00;99.90;;;;;;6109510;23;20445;-93
2022/04/08 16:00:44;;;;;;;5.20;1.02;;;11.90;99.90;;;;;;6107717;23;20357;-93
2022/04/08 16:03:24;;;;;;;2.33;0.68;;;11.70;99.90;;;;;;6109820;23;20017;-92
2022/04/08 16:06:05;;;;;;;6.05;1.08;;;11.70;99.90;;;;;;6132394;23;20014;-93
2022/04/08 16:08:37;;;;;;;8.00;1.33;;;11.60;99.90;;;;;;6134782;23;20025;-92
2022/04/08 16:11:21;;;;;;;3.40;0.60;;;11.60;99.90;;;;;;6085665;23;20089;-92
2022/04/08 16:13:54;;;;;;;7.53;1.45;;;11.60;99.90;;;;;;6099730;23;20481;-93
2022/04/08 16:17:36;;;;;;;3.47;1.08;;;11.50;99.90;;;;;;6098140;23;20078;-93
2022/04/08 21:54:15;;;;;;;9.80;2.35;;;7.50;99.90;;;;;;6158493;23;20063;-92
2022/04/08 22:09:52;;;;;;;11.13;2.45;;;7.60;99.90;;;;;;6094032;23;20026;-90
2022/04/08 22:12:37;;;;;;;15.75;2.28;;;7.50;99.90;;;;;;6100406;23;20073;-91
2022/04/08 22:19:39;;;;;;;11.95;2.30;;;7.50;99.90;;;;;;6098049;23;20022;-90
2022/04/08 22:23:02;;;;;;;5.88;1.65;;;7.50;99.90;;;;;;6125549;23;20092;-90
2022/04/08 22:26:34;;;;;;;5.03;1.13;;;7.50;99.90;;;;;;6009511;23;20027;-90
2022/04/08 22:29:13;;;;;;;4.70;0.85;;;7.40;99.90;;;;;;6010425;23;20354;-89
2022/04/08 22:32:07;;;;;;;9.25;1.02;;;7.30;99.90;;;;;;6009030;23;20028;-89
2022/04/08 22:46:55;;;;;;;;;;;;;;;;;;;;;
2022/04/08 22:54:42;;;;;;;7.82;1.73;;;7.40;99.90;;;;;;6121693;23;20025;-91
2022/04/08 22:57:45;;;;;;;3.95;1.20;;;7.40;99.90;;;;;;6124699;23;20025;-90
2022/04/08 23:01:10;;;;;;;6.20;1.70;;;7.40;99.90;;;;;;6126581;23;20014;-90
2022/04/08 23:04:00;;;;;;;11.18;1.63;;;7.30;99.90;;;;;;6127508;23;20033;-90
2022/04/08 23:07:04;;;;;;;6.20;0.88;;;7.30;99.90;;;;;;6118961;23;20029;-91
2022/04/08 23:09:56;;;;;;;6.32;1.67;;;7.30;99.90;;;;;;6126783;23;20109;-91
2022/04/08 23:13:07;;;;;;;13.23;2.15;;;7.30;99.90;;;;;;6126902;23;20386;-91
2022/04/08 23:16:19;;;;;;;3.03;1.30;;;7.20;99.90;;;;;;6008574;23;20486;-90
2022/04/08 23:19:10;;;;;;;11.23;1.50;;;7.30;99.90;;;;;;6127155;23;20026;-91
2022/04/08 23:22:15;;;;;;;5.82;1.23;;;7.20;99.90;;;;;;6106335;23;20357;-90
2022/04/08 23:25:29;;;;;;;5.38;1.65;;;7.20;99.90;;;;;;6127752;23;20371;-90
2022/04/08 23:28:08;;;;;;;12.50;2.35;;;7.20;99.90;;;;;;6105281;23;20319;-90
2022/04/08 23:30:56;;;;;;;13.20;1.63;;;7.20;99.90;;;;;;6105786;23;20052;-90
2022/04/08 23:33:58;;;;;;;9.63;1.60;;;7.20;99.90;;;;;;6104012;23;20089;-91
2022/04/08 23:37:01;;;;;;;6.55;1.30;;;7.20;99.90;;;;;;6126688;23;20026;-90
2022/04/08 23:40:15;;;;;;;5.00;1.10;;;7.20;99.90;;;;;;6126069;23;20026;-90
2022/04/08 23:43:01;;;;;;;7.90;1.05;;;7.20;99.90;;;;;;6126774;23;20026;-91
2022/04/08 23:45:46;;;;;;;12.77;1.40;;;7.20;99.90;;;;;;6127074;23;20022;-91
2022/04/08 23:48:21;;;;;;;5.82;1.92;;;7.20;99.90;;;;;;6104043;23;20017;-90
2022/04/08 23:51:29;;;;;;;7.80;2.22;;;7.20;99.90;;;;;;6103427;23;20052;-90
2022/04/08 23:54:44;;;;;;;9.00;1.50;;;7.20;99.90;;;;;;6126367;23;20323;-90
2022/04/08 23:57:47;;;;;;;5.55;1.17;;;7.20;99.90;;;;;;6107844;23;20018;-90
